Time;durP1;ratioP1;P1;durP2;ratioP2;P2;SDS_P1;SDS_P2;PMS_P1;PMS_P2;Temp;Humidity;BMP_temperature;BMP_pressure;BME280_temperature;BME280_humidity;BME280_pressure;Samples;Min_cycle;Max_cycle;Signal;HPM_P1;HPM_P2
2023/04/01 00:00:18;;;;;;;4.60;4.20;;;10.20;99.90;;;;;;5132001;27;20027;-78
2023/04/01 00:02:44;;;;;;;5.80;4.57;;;10.10;99.90;;;;;;5131098;27;20030;-76
2023/04/01 00:05:11;;;;;;;5.45;4.63;;;10.10;99.90;;;;;;5132664;27;20023;-77
2023/04/01 00:07:38;;;;;;;6.35;5.13;;;10.10;99.90;;;;;;5132031;27;20421;-76
2023/04/01 00:10:06;;;;;;;5.68;4.90;;;10.10;99.90;;;;;;5131468;27;20196;-77
2023/04/01 00:12:31;;;;;;;7.07;4.60;;;10.10;99.90;;;;;;5131399;27;20505;-78
2023/04/01 00:14:57;;;;;;;4.63;4.22;;;10.10;99.90;;;;;;5130828;27;20051;-79
2023/04/01 00:17:23;;;;;;;5.15;4.65;;;10.10;99.90;;;;;;5113251;27;20063;-79
2023/04/01 00:19:49;;;;;;;6.05;5.07;;;10.10;99.90;;;;;;5131050;27;20031;-79
2023/04/01 00:22:15;;;;;;;5.93;5.25;;;10.10;99.90;;;;;;5131343;27;20050;-78
2023/04/01 00:24:41;;;;;;;5.65;5.15;;;10.10;99.90;;;;;;5131274;27;20034;-83
2023/04/01 00:27:07;;;;;;;5.65;5.13;;;10.00;99.90;;;;;;5131141;27;20042;-79
2023/04/01 00:29:33;;;;;;;5.38;4.88;;;10.10;99.90;;;;;;5113520;27;20035;-79
2023/04/01 00:31:59;;;;;;;6.78;5.40;;;10.00;99.90;;;;;;5130706;27;20536;-79
2023/04/01 00:34:25;;;;;;;5.97;5.00;;;10.10;99.90;;;;;;5130760;27;20019;-79
2023/04/01 00:36:52;;;;;;;5.13;4.63;;;10.10;99.90;;;;;;5131052;27;20452;-79
2023/04/01 00:39:19;;;;;;;5.90;4.45;;;10.10;99.90;;;;;;5131501;27;20379;-79
2023/04/01 00:41:45;;;;;;;4.57;4.18;;;10.00;99.90;;;;;;5130709;27;20370;-80
2023/04/01 00:44:37;;;;;;;5.18;4.68;;;10.00;99.90;;;;;;5131420;27;20023;-78
2023/04/01 00:47:02;;;;;;;5.18;4.68;;;10.00;99.90;;;;;;5129871;27;20068;-77
2023/04/01 00:49:39;;;;;;;7.55;5.53;;;10.00;99.90;;;;;;5131691;27;20066;-77
2023/04/01 00:52:08;;;;;;;5.80;5.20;;;10.00;99.90;;;;;;5130787;28;20490;-78
2023/04/01 00:54:35;;;;;;;5.40;4.90;;;10.00;99.90;;;;;;5131705;28;20058;-77
2023/04/01 00:57:15;;;;;;;5.80;5.07;;;10.00;99.90;;;;;;5131140;28;20288;-78
2023/04/01 00:59:43;;;;;;;5.55;5.05;;;10.00;99.90;;;;;;5131325;28;20134;-77
2023/04/01 01:02:12;;;;;;;5.45;4.68;;;10.00;99.90;;;;;;5131201;28;20487;-77
2023/04/01 01:04:38;;;;;;;5.47;4.75;;;10.00;99.90;;;;;;5131356;28;20023;-77
2023/04/01 01:07:06;;;;;;;5.97;4.40;;;9.90;99.90;;;;;;5130644;28;20207;-78
2023/04/01 01:09:44;;;;;;;4.75;4.10;;;10.00;99.90;;;;;;5130892;28;20456;-78
2023/04/01 01:12:15;;;;;;;7.20;4.55;;;9.90;99.90;;;;;;5131324;28;20468;-77
2023/04/01 01:14:56;;;;;;;4.75;4.10;;;9.90;99.90;;;;;;5131129;28;20114;-77
2023/04/01 01:17:52;;;;;;;4.80;4.07;;;10.00;99.90;;;;;;5131500;28;20034;-78
2023/04/01 01:20:32;;;;;;;4.82;4.35;;;9.90;99.90;;;;;;5131208;28;20031;-77
2023/04/01 01:23:22;;;;;;;4.75;4.18;;;9.90;99.90;;;;;;5130281;28;20437;-77
2023/04/01 01:25:58;;;;;;;4.65;4.25;;;9.90;99.90;;;;;;5130376;28;20464;-77
2023/04/01 01:28:36;;;;;;;5.15;4.25;;;9.90;99.90;;;;;;5112411;28;20031;-78
2023/04/01 01:31:16;;;;;;;5.75;4.70;;;9.90;99.90;;;;;;5130505;28;20027;-77
2023/04/01 01:33:58;;;;;;;5.82;5.20;;;9.90;99.90;;;;;;5130860;28;20050;-78
2023/04/01 01:36:28;;;;;;;6.32;5.60;;;9.90;99.90;;;;;;5112536;28;20077;-78
2023/04/01 01:38:56;;;;;;;5.70;5.07;;;9.90;99.90;;;;;;5130113;28;20019;-78
2023/04/01 01:41:23;;;;;;;5.43;4.93;;;9.90;99.90;;;;;;5130885;28;20099;-78
2023/04/01 01:43:51;;;;;;;5.43;4.72;;;9.90;99.90;;;;;;5130043;28;20068;-79
2023/04/01 01:46:24;;;;;;;5.35;4.25;;;9.90;99.90;;;;;;5133069;27;20023;-78
2023/04/01 01:48:51;;;;;;;5.38;4.60;;;9.90;99.90;;;;;;5134370;27;20023;-78
2023/04/01 01:51:19;;;;;;;4.75;4.30;;;9.90;99.90;;;;;;5134570;27;20034;-79
2023/04/01 01:53:45;;;;;;;4.90;4.15;;;9.90;99.90;;;;;;5134275;27;20034;-82
2023/04/01 01:56:15;;;;;;;5.10;3.85;;;9.90;99.90;;;;;;5134027;27;20027;-79
2023/04/01 01:58:47;;;;;;;5.88;3.90;;;9.90;99.90;;;;;;5134855;27;20027;-79
2023/04/01 02:01:41;;;;;;;4.35;3.80;;;9.90;99.90;;;;;;5134537;27;20031;-79
2023/04/01 02:04:07;;;;;;;5.82;3.13;;;9.90;99.90;;;;;;5129814;27;20188;-78
2023/04/01 02:06:38;;;;;;;5.05;3.47;;;9.80;99.90;;;;;;5134034;27;20097;-78
2023/04/01 02:09:10;;;;;;;5.20;3.60;;;9.80;99.90;;;;;;5133479;27;20032;-78
2023/04/01 02:11:45;;;;;;;4.57;3.53;;;9.80;99.90;;;;;;5134131;27;20321;-78
2023/04/01 02:14:17;;;;;;;4.75;3.75;;;9.80;99.90;;;;;;5133514;27;20038;-78
2023/04/01 02:16:49;;;;;;;6.32;3.50;;;9.80;99.90;;;;;;5115666;27;20424;-78
2023/04/01 02:19:22;;;;;;;5.47;3.25;;;9.80;99.90;;;;;;5134241;27;20027;-78
2023/04/01 02:21:51;;;;;;;5.10;3.67;;;9.80;99.90;;;;;;5133639;27;20130;-82
2023/04/01 02:24:18;;;;;;;4.70;3.33;;;9.80;99.90;;;;;;5134129;27;20121;-77
2023/04/01 02:26:45;;;;;;;4.00;3.40;;;9.70;99.90;;;;;;5133796;27;20031;-77
2023/04/01 02:29:12;;;;;;;4.10;3.20;;;9.80;99.90;;;;;;5114990;27;20153;-78
2023/04/01 02:31:38;;;;;;;4.43;3.10;;;9.80;99.90;;;;;;5133902;27;20096;-78
2023/04/01 02:34:04;;;;;;;3.30;3.00;;;9.70;99.90;;;;;;5133111;27;20039;-79
2023/04/01 02:36:30;;;;;;;4.80;3.60;;;9.70;99.90;;;;;;5134087;27;20343;-78
2023/04/01 02:39:02;;;;;;;4.07;3.45;;;9.80;99.90;;;;;;5133122;27;20098;-78
2023/04/01 02:41:28;;;;;;;5.50;3.60;;;9.80;99.90;;;;;;5115927;27;20104;-78
2023/04/01 02:43:54;;;;;;;5.93;3.35;;;9.70;99.90;;;;;;5133140;27;20495;-78
2023/04/01 02:46:20;;;;;;;3.80;3.40;;;9.70;99.90;;;;;;5133532;27;20019;-78
2023/04/01 02:48:46;;;;;;;3.80;3.22;;;9.70;99.90;;;;;;5133328;27;20482;-78
2023/04/01 02:51:11;;;;;;;4.45;3.53;;;9.70;99.90;;;;;;5133047;27;20042;-78
2023/04/01 02:53:37;;;;;;;4.30;3.50;;;9.70;99.90;;;;;;5133871;27;20023;-78
2023/04/01 02:56:03;;;;;;;5.30;3.38;;;9.70;99.90;;;;;;5133145;27;20164;-78
2023/04/01 02:58:29;;;;;;;4.78;3.50;;;9.80;99.90;;;;;;5132352;27;20456;-78
2023/04/01 03:00:55;;;;;;;3.92;3.50;;;9.80;99.90;;;;;;5132881;27;20034;-79
2023/04/01 03:03:20;;;;;;;4.22;3.20;;;9.70;99.90;;;;;;5133123;27;20030;-78
2023/04/01 03:05:46;;;;;;;6.45;3.85;;;9.70;99.90;;;;;;5133633;27;20019;-78
2023/04/01 03:08:12;;;;;;;5.68;3.78;;;9.70;99.90;;;;;;5132876;27;20015;-78
2023/04/01 03:10:37;;;;;;;4.50;3.78;;;9.80;99.90;;;;;;5133234;27;20031;-78
2023/04/01 03:13:03;;;;;;;3.85;3.33;;;9.80;99.90;;;;;;5132534;27;20038;-78
2023/04/01 03:15:29;;;;;;;4.60;3.70;;;9.80;99.90;;;;;;5133415;27;20027;-78
2023/04/01 03:17:55;;;;;;;4.50;3.50;;;9.70;99.90;;;;;;5114048;27;20027;-79
2023/04/01 03:20:20;;;;;;;3.92;3.50;;;9.70;99.90;;;;;;5132920;27;20064;-77
2023/04/01 03:22:46;;;;;;;7.10;3.30;;;9.70;99.90;;;;;;5132469;27;20385;-77
2023/04/01 03:25:12;;;;;;;3.80;3.50;;;9.70;99.90;;;;;;5132136;27;20084;-76
2023/04/01 03:27:38;;;;;;;3.38;3.10;;;9.70;99.90;;;;;;5132817;27;20386;-76
2023/04/01 03:30:05;;;;;;;4.95;3.47;;;9.70;99.90;;;;;;5132049;27;20352;-77
2023/04/01 03:32:31;;;;;;;4.93;3.58;;;9.70;99.90;;;;;;5132855;27;20513;-76
2023/04/01 03:34:57;;;;;;;5.60;3.45;;;9.70;99.90;;;;;;5131848;27;20030;-77
2023/04/01 03:37:24;;;;;;;4.20;3.35;;;9.70;99.90;;;;;;5113992;27;20027;-76
2023/04/01 03:39:50;;;;;;;2.90;2.50;;;9.70;99.90;;;;;;5114196;27;20030;-76
2023/04/01 03:42:16;;;;;;;4.57;2.88;;;9.70;99.90;;;;;;5113363;27;20065;-76
2023/04/01 03:44:41;;;;;;;4.78;2.60;;;9.70;99.90;;;;;;5132642;27;20047;-77
2023/04/01 03:47:08;;;;;;;5.90;2.70;;;9.70;99.90;;;;;;5132100;27;20526;-79
2023/04/01 03:49:35;;;;;;;5.95;3.03;;;9.70;99.90;;;;;;5132356;27;20031;-79
2023/04/01 03:52:00;;;;;;;5.10;2.70;;;9.70;99.90;;;;;;5132133;27;20035;-79
2023/04/01 03:54:26;;;;;;;4.13;2.83;;;9.70;99.90;;;;;;5132307;27;20027;-78
2023/04/01 03:56:52;;;;;;;4.40;3.25;;;9.70;99.90;;;;;;5132119;27;20019;-79
2023/04/01 03:59:18;;;;;;;4.32;2.80;;;9.70;99.90;;;;;;5131832;27;20023;-78
2023/04/01 04:01:45;;;;;;;5.22;3.20;;;9.70;99.90;;;;;;5132053;27;20027;-78
2023/04/01 04:04:12;;;;;;;7.03;3.30;;;9.60;99.90;;;;;;5113452;27;20031;-78
2023/04/01 04:06:41;;;;;;;3.53;3.20;;;9.70;99.90;;;;;;5132653;27;20071;-78
2023/04/01 04:09:07;;;;;;;5.07;3.70;;;9.60;99.90;;;;;;5131808;27;20102;-79
2023/04/01 04:11:33;;;;;;;6.10;3.63;;;9.70;99.90;;;;;;5132465;27;20140;-78
2023/04/01 04:13:59;;;;;;;5.38;3.42;;;9.60;99.90;;;;;;5131601;27;20031;-80
2023/04/01 04:16:25;;;;;;;5.95;3.88;;;9.60;99.90;;;;;;5132604;27;20030;-79
2023/04/01 04:18:51;;;;;;;4.40;3.45;;;9.60;99.90;;;;;;5132609;27;20019;-78
2023/04/01 04:21:17;;;;;;;4.90;3.58;;;9.60;99.90;;;;;;5131717;27;20035;-78
2023/04/01 04:23:43;;;;;;;5.43;3.78;;;9.60;99.90;;;;;;5113770;27;20039;-78
2023/04/01 04:26:13;;;;;;;4.18;3.60;;;9.60;99.90;;;;;;5131534;27;20042;-78
2023/04/01 04:28:40;;;;;;;7.47;4.00;;;9.60;99.90;;;;;;5132287;27;20046;-78
2023/04/01 04:31:06;;;;;;;4.45;3.33;;;9.60;99.90;;;;;;5131204;27;20103;-78
2023/04/01 04:33:32;;;;;;;4.35;3.10;;;9.60;99.90;;;;;;5131990;27;20318;-78
2023/04/01 04:35:59;;;;;;;4.93;3.35;;;9.60;99.90;;;;;;5131402;27;20030;-83
2023/04/01 04:38:26;;;;;;;4.55;3.42;;;9.60;99.90;;;;;;5132047;27;20144;-78
2023/04/01 04:40:51;;;;;;;6.05;3.50;;;9.60;99.90;;;;;;5131705;27;20496;-78
2023/04/01 04:43:18;;;;;;;5.40;3.08;;;9.60;99.90;;;;;;5131190;27;20098;-78
2023/04/01 04:45:45;;;;;;;4.22;3.00;;;9.60;99.90;;;;;;5131525;27;20031;-79
2023/04/01 04:48:18;;;;;;;6.65;4.18;;;9.60;99.90;;;;;;5130931;27;20491;-79
2023/04/01 04:50:45;;;;;;;9.13;5.78;;;9.60;99.90;;;;;;5131380;28;20031;-79
2023/04/01 04:53:12;;;;;;;8.30;5.93;;;9.60;99.90;;;;;;5130610;28;20186;-79
2023/04/01 04:55:42;;;;;;;6.70;4.30;;;9.60;99.90;;;;;;5131313;28;20363;-79
2023/04/01 04:58:07;;;;;;;3.80;2.97;;;9.60;99.90;;;;;;5130863;28;20023;-79
2023/04/01 05:00:33;;;;;;;12.48;8.85;;;9.50;99.90;;;;;;5131104;28;20030;-79
2023/04/01 05:02:59;;;;;;;6.55;4.97;;;9.60;99.90;;;;;;5131090;28;20038;-81
2023/04/01 05:05:25;;;;;;;4.53;3.53;;;9.60;99.90;;;;;;5130611;28;20020;-79
2023/04/01 05:07:51;;;;;;;6.85;3.78;;;9.60;99.90;;;;;;5131176;28;20456;-79
2023/04/01 05:10:16;;;;;;;5.28;3.63;;;9.60;99.90;;;;;;5130732;28;20027;-79
2023/04/01 05:12:42;;;;;;;3.75;3.30;;;9.60;99.90;;;;;;5131189;28;20079;-79
2023/04/01 05:15:09;;;;;;;5.55;3.15;;;9.60;99.90;;;;;;5130737;28;20027;-79
2023/04/01 05:17:34;;;;;;;5.80;3.00;;;9.60;99.90;;;;;;5131284;28;20053;-79
2023/04/01 05:20:00;;;;;;;6.20;2.70;;;9.60;99.90;;;;;;5131426;27;20114;-82
2023/04/01 05:22:27;;;;;;;4.28;2.55;;;9.60;99.90;;;;;;5116228;27;20047;-79
2023/04/01 05:24:52;;;;;;;3.95;2.60;;;9.60;99.90;;;;;;5135417;27;20019;-79
2023/04/01 05:27:18;;;;;;;3.92;2.40;;;9.60;99.90;;;;;;5134777;27;20026;-78
2023/04/01 05:29:44;;;;;;;2.35;2.05;;;9.50;99.90;;;;;;5134981;27;20035;-78
2023/04/01 05:32:09;;;;;;;2.17;2.05;;;9.50;99.90;;;;;;5134143;27;20084;-79
2023/04/01 05:34:35;;;;;;;2.33;1.90;;;9.60;99.90;;;;;;5135408;27;20034;-79
2023/04/01 05:37:01;;;;;;;2.17;1.98;;;9.50;99.90;;;;;;5134927;27;20019;-81
2023/04/01 05:39:27;;;;;;;3.45;2.20;;;9.50;99.90;;;;;;5134777;27;20041;-78
2023/04/01 05:41:52;;;;;;;3.13;1.80;;;9.50;99.90;;;;;;5135230;27;20042;-78
2023/04/01 05:44:18;;;;;;;3.65;2.17;;;9.50;99.90;;;;;;5116137;27;20058;-78
2023/04/01 05:46:44;;;;;;;4.57;2.10;;;9.50;99.90;;;;;;5134938;27;20027;-78
2023/04/01 05:49:09;;;;;;;4.75;1.60;;;9.50;99.90;;;;;;5134407;27;20019;-78
2023/04/01 05:51:35;;;;;;;5.05;2.38;;;9.50;99.90;;;;;;5135072;27;20040;-78
2023/04/01 05:54:01;;;;;;;4.13;2.60;;;9.50;99.90;;;;;;5134677;27;20118;-77
2023/04/01 05:56:27;;;;;;;5.90;2.83;;;9.50;99.90;;;;;;5134272;27;20016;-79
2023/04/01 05:58:54;;;;;;;5.15;2.67;;;9.50;99.90;;;;;;5135070;27;20383;-78
2023/04/01 06:01:20;;;;;;;3.35;2.28;;;9.50;99.90;;;;;;5134140;27;20027;-78
2023/04/01 06:03:46;;;;;;;5.43;2.47;;;9.50;99.90;;;;;;5134845;27;20034;-77
2023/04/01 06:06:22;;;;;;;3.53;2.20;;;9.50;99.90;;;;;;5133978;27;20024;-78
2023/04/01 06:08:49;;;;;;;5.95;2.58;;;9.50;99.90;;;;;;5116052;27;20122;-79
2023/04/01 06:11:57;;;;;;;6.85;2.88;;;9.60;99.90;;;;;;5133730;27;20096;-76
2023/04/01 06:15:00;;;;;;;4.35;3.00;;;9.50;99.90;;;;;;5125084;27;20039;-76
2023/04/01 06:17:25;;;;;;;;;;;9.50;99.90;;;;;;5104186;27;20094;-77
2023/04/01 06:19:56;;;;;;;3.53;2.28;;;9.50;99.90;;;;;;5134094;27;19979;-77
2023/04/01 06:23:01;;;;;;;4.55;3.38;;;9.60;99.90;;;;;;5133455;27;20460;-76
2023/04/01 06:25:54;;;;;;;5.30;3.00;;;9.50;99.90;;;;;;5133762;27;20019;-77
2023/04/01 06:28:43;;;;;;;4.85;2.55;;;9.60;99.90;;;;;;5133485;27;20026;-77
2023/04/01 06:31:36;;;;;;;4.95;3.78;;;9.60;99.90;;;;;;5133217;27;20035;-77
2023/04/01 06:34:46;;;;;;;21.10;13.63;;;9.60;99.90;;;;;;5133677;27;20460;-77
2023/04/01 06:37:19;;;;;;;15.82;11.02;;;9.60;99.90;;;;;;5052571;27;20349;-77
2023/04/01 06:39:45;;;;;;;24.08;16.65;;;9.60;99.90;;;;;;5133890;27;20380;-76
2023/04/01 06:42:43;;;;;;;11.50;6.30;;;9.60;99.90;;;;;;5133243;27;20114;-78
2023/04/01 06:45:51;;;;;;;3.95;3.47;;;9.60;99.90;;;;;;5119251;27;20472;-80
2023/04/01 06:48:46;;;;;;;1.98;1.85;;;9.60;99.90;;;;;;5132867;27;20108;-78
2023/04/01 06:51:33;;;;;;;3.10;2.38;;;9.60;99.90;;;;;;5132973;27;20106;-78
2023/04/01 06:54:08;;;;;;;2.20;2.00;;;9.60;99.90;;;;;;5133299;27;20075;-77
2023/04/01 06:56:38;;;;;;;3.53;2.50;;;9.60;99.90;;;;;;5133621;27;20031;-77
2023/04/01 06:59:17;;;;;;;5.15;3.10;;;9.60;99.90;;;;;;5133439;27;20041;-77
2023/04/01 07:01:57;;;;;;;4.25;2.83;;;9.50;99.90;;;;;;5133916;27;20138;-77
2023/04/01 07:04:43;;;;;;;3.50;2.58;;;9.50;99.90;;;;;;5132764;27;20033;-78
2023/04/01 07:07:36;;;;;;;4.93;2.80;;;9.50;99.90;;;;;;5133072;27;20126;-82
2023/04/01 07:10:10;;;;;;;7.32;3.05;;;9.50;99.90;;;;;;5133091;27;20042;-77
2023/04/01 07:12:54;;;;;;;5.68;2.65;;;9.50;99.90;;;;;;5133361;27;20031;-77
2023/04/01 07:15:41;;;;;;;8.88;3.13;;;9.50;99.90;;;;;;5132395;27;20106;-78
2023/04/01 07:18:22;;;;;;;6.07;2.67;;;9.40;99.90;;;;;;5133629;27;20024;-78
2023/04/01 07:20:48;;;;;;;7.35;3.13;;;9.50;99.90;;;;;;5133092;27;20031;-78
2023/04/01 07:23:24;;;;;;;4.95;3.20;;;9.50;99.90;;;;;;5132540;27;20051;-78
2023/04/01 07:25:59;;;;;;;6.70;3.30;;;9.50;99.90;;;;;;5133135;27;20038;-77
2023/04/01 07:28:31;;;;;;;5.40;2.95;;;9.50;99.90;;;;;;5132343;27;20417;-78
2023/04/01 07:31:30;;;;;;;4.97;3.05;;;9.40;99.90;;;;;;5132802;27;20034;-77
2023/04/01 07:34:07;;;;;;;6.22;3.55;;;9.50;99.90;;;;;;5132711;27;20027;-77
2023/04/01 07:36:47;;;;;;;7.88;2.85;;;9.50;99.90;;;;;;5132232;27;20091;-78
2023/04/01 07:39:31;;;;;;;6.75;3.20;;;9.40;99.90;;;;;;5131943;27;20033;-80
2023/04/01 07:42:23;;;;;;;6.97;2.55;;;9.50;99.90;;;;;;5114262;27;20030;-78
2023/04/01 07:45:16;;;;;;;5.97;3.65;;;9.50;99.90;;;;;;5132544;27;20133;-79
2023/04/01 07:48:05;;;;;;;6.38;3.22;;;9.50;99.90;;;;;;5132742;27;20024;-79
2023/04/01 07:50:55;;;;;;;6.97;3.60;;;9.50;99.90;;;;;;5132194;27;20039;-79
2023/04/01 07:53:21;;;;;;;9.57;3.75;;;9.60;99.90;;;;;;5132285;27;20038;-79
2023/04/01 07:56:05;;;;;;;9.05;3.80;;;9.60;99.90;;;;;;5132644;27;20027;-79
2023/04/01 07:58:53;;;;;;;5.28;3.85;;;9.70;99.90;;;;;;5132244;27;20031;-78
2023/04/01 08:01:47;;;;;;;8.15;4.10;;;9.70;99.90;;;;;;5132059;27;20079;-79
2023/04/01 08:04:42;;;;;;;7.07;4.13;;;9.80;99.90;;;;;;5114228;27;20118;-83
2023/04/01 08:07:15;;;;;;;11.10;6.75;;;9.90;99.90;;;;;;5086492;27;20071;-79
2023/04/01 08:09:55;;;;;;;7.20;4.78;;;9.90;99.90;;;;;;5131826;27;20034;-79
2023/04/01 08:12:48;;;;;;;11.13;7.00;;;9.90;99.90;;;;;;5131598;27;20031;-79
2023/04/01 08:15:41;;;;;;;8.75;6.15;;;9.90;99.90;;;;;;5113424;27;20027;-83
2023/04/01 08:18:20;;;;;;;7.82;5.88;;;9.90;99.90;;;;;;5132033;27;20023;-78
2023/04/01 08:21:05;;;;;;;11.80;6.20;;;9.90;99.90;;;;;;5132222;27;20133;-78
2023/04/01 08:23:40;;;;;;;8.75;5.65;;;9.90;99.90;;;;;;5112681;27;20051;-77
2023/04/01 08:26:35;;;;;;;9.93;5.50;;;9.90;99.90;;;;;;5131297;27;20038;-77
2023/04/01 08:29:11;;;;;;;10.50;5.07;;;9.90;99.90;;;;;;5113620;27;20080;-78
2023/04/01 08:31:49;;;;;;;6.25;4.32;;;9.90;99.90;;;;;;5131264;27;20038;-77
2023/04/01 08:34:28;;;;;;;9.65;4.90;;;10.00;99.90;;;;;;5131383;27;20104;-83
2023/04/01 08:37:05;;;;;;;9.18;5.32;;;10.10;99.90;;;;;;5131700;27;20030;-77
2023/04/01 08:39:44;;;;;;;7.75;4.82;;;10.10;99.90;;;;;;5130906;27;20022;-78
2023/04/01 08:42:36;;;;;;;8.05;3.92;;;10.10;99.90;;;;;;5131375;27;20421;-78
2023/04/01 08:45:23;;;;;;;5.85;4.05;;;10.20;99.90;;;;;;5131475;27;20416;-78
2023/04/01 08:48:21;;;;;;;6.82;4.50;;;10.30;99.90;;;;;;5112947;27;20447;-78
2023/04/01 08:51:02;;;;;;;6.00;4.40;;;10.30;99.90;;;;;;5112891;27;20376;-75
2023/04/01 08:53:31;;;;;;;9.25;3.72;;;10.30;99.90;;;;;;5130930;28;20436;-77
2023/04/01 08:56:18;;;;;;;3.72;3.00;;;10.30;99.90;;;;;;5130690;27;20027;-76
2023/04/01 08:59:17;;;;;;;6.55;3.70;;;10.30;99.90;;;;;;5131222;28;20088;-77
2023/04/01 09:01:43;;;;;;;5.57;4.05;;;10.40;99.90;;;;;;5079131;28;20607;-77
2023/04/01 09:04:24;;;;;;;5.28;3.67;;;10.40;99.90;;;;;;5130616;28;20022;-76
2023/04/01 09:06:50;;;;;;;4.80;3.28;;;10.50;99.90;;;;;;5131324;28;20030;-77
2023/04/01 09:09:38;;;;;;;3.17;2.40;;;10.60;99.90;;;;;;5130794;28;20019;-78
2023/04/01 09:12:40;;;;;;;5.18;2.90;;;10.50;99.90;;;;;;5131426;28;20054;-77
2023/04/01 09:15:37;;;;;;;6.32;3.20;;;10.60;99.90;;;;;;5112653;28;20031;-78
2023/04/01 09:18:23;;;;;;;6.05;2.67;;;10.60;99.90;;;;;;5131828;28;20106;-77
2023/04/01 09:21:01;;;;;;;2.70;2.50;;;10.60;99.90;;;;;;5131972;28;20410;-78
2023/04/01 09:24:13;;;;;;;5.22;3.38;;;10.50;99.90;;;;;;5132318;28;20054;-78
2023/04/01 09:26:46;;;;;;;3.40;2.13;;;10.50;99.90;;;;;;5085848;28;20031;-78
2023/04/01 09:29:24;;;;;;;5.93;2.10;;;10.50;99.90;;;;;;5132035;28;20019;-77
2023/04/01 09:32:07;;;;;;;6.63;2.05;;;10.50;99.90;;;;;;5131846;28;20032;-76
2023/04/01 09:35:05;;;;;;;2.22;1.60;;;10.60;99.90;;;;;;5131274;28;20481;-77
2023/04/01 09:37:42;;;;;;;6.40;1.92;;;10.50;99.90;;;;;;5131338;28;20362;-77
2023/04/01 09:40:17;;;;;;;5.82;1.58;;;10.60;99.90;;;;;;5131578;28;20031;-76
2023/04/01 09:42:44;;;;;;;1.65;1.23;;;10.70;99.90;;;;;;5131215;28;20027;-76
2023/04/01 09:45:40;;;;;;;3.28;2.00;;;10.70;99.90;;;;;;5113403;28;20531;-76
2023/04/01 09:48:19;;;;;;;1.42;1.33;;;10.70;99.90;;;;;;5131684;28;20023;-78
2023/04/01 09:51:20;;;;;;;2.47;1.70;;;10.80;99.90;;;;;;5112435;28;20469;-78
2023/04/01 09:54:16;;;;;;;3.88;1.45;;;10.90;99.90;;;;;;5090791;28;20039;-77
2023/04/01 09:57:19;;;;;;;3.13;1.58;;;11.00;99.90;;;;;;5130471;28;20079;-77
2023/04/01 10:00:09;;;;;;;2.67;1.20;;;11.10;99.90;;;;;;5130413;28;20067;-77
2023/04/01 10:02:41;;;;;;;2.40;1.52;;;11.10;99.90;;;;;;5130277;28;20034;-77
2023/04/01 10:05:12;;;;;;;1.73;1.50;;;11.10;99.90;;;;;;5131298;28;20099;-77
2023/04/01 10:08:15;;;;;;;1.50;1.20;;;11.20;99.90;;;;;;5133357;27;20059;-76
2023/04/01 10:10:59;;;;;;;1.23;0.90;;;11.20;99.90;;;;;;5133619;27;20167;-76
2023/04/01 10:13:43;;;;;;;1.77;1.10;;;11.00;99.90;;;;;;5134022;27;20038;-77
2023/04/01 10:16:26;;;;;;;0.82;0.73;;;11.10;99.90;;;;;;5113786;28;20028;-76
2023/04/01 10:19:23;;;;;;;2.42;1.00;;;11.10;99.90;;;;;;5114267;28;20094;-75
2023/04/01 10:22:17;;;;;;;1.55;0.65;;;11.00;99.90;;;;;;5040478;28;20453;-76
2023/04/01 10:25:28;;;;;;;1.60;0.63;;;11.00;99.90;;;;;;5113405;28;20020;-76
2023/04/01 10:28:13;;;;;;;1.35;0.57;;;11.00;99.90;;;;;;5075021;28;20035;-76
2023/04/01 10:30:42;;;;;;;1.52;0.90;;;11.10;99.90;;;;;;5113395;28;20133;-76
2023/04/01 10:33:31;;;;;;;2.22;1.00;;;11.10;99.90;;;;;;5113957;28;20159;-74
2023/04/01 10:36:25;;;;;;;1.33;0.60;;;11.20;99.90;;;;;;5113495;28;20028;-74
2023/04/01 10:39:00;;;;;;;1.30;0.75;;;11.20;99.90;;;;;;5113539;28;20047;-74
2023/04/01 10:41:52;;;;;;;1.23;0.70;;;11.30;99.90;;;;;;5112846;28;20123;-78
2023/04/01 10:44:45;;;;;;;3.83;0.82;;;11.30;99.90;;;;;;5109046;28;20042;-74
2023/04/01 10:48:05;;;;;;;1.63;0.80;;;11.40;99.90;;;;;;5113511;28;20036;-74
2023/04/01 10:50:55;;;;;;;3.42;0.88;;;11.50;99.90;;;;;;5029595;28;20068;-74
2023/04/01 10:53:57;;;;;;;1.50;1.00;;;11.50;99.90;;;;;;5113232;28;20032;-74
2023/04/01 10:56:32;;;;;;;2.47;0.85;;;11.50;99.90;;;;;;5112724;28;20464;-78
2023/04/01 10:59:15;;;;;;;1.60;0.85;;;11.60;99.90;;;;;;5113055;28;20453;-74
2023/04/01 11:02:18;;;;;;;1.85;0.60;;;11.50;99.90;;;;;;5112182;28;20038;-74
2023/04/01 11:04:43;;;;;;;2.13;0.83;;;11.50;99.90;;;;;;5111962;28;20054;-74
2023/04/01 11:07:43;;;;;;;2.67;0.95;;;11.50;99.90;;;;;;5094327;28;20357;-74
2023/04/01 11:10:18;;;;;;;1.77;0.85;;;11.40;99.90;;;;;;5113273;28;20032;-75
2023/04/01 11:13:05;;;;;;;2.47;0.80;;;11.50;99.90;;;;;;5111680;28;20192;-75
2023/04/01 11:16:03;;;;;;;3.55;1.00;;;11.50;99.90;;;;;;5112210;28;20024;-75
2023/04/01 11:18:58;;;;;;;3.63;1.45;;;11.50;99.90;;;;;;5103532;28;20036;-75
2023/04/01 11:21:41;;;;;;;3.20;1.25;;;11.50;99.90;;;;;;5111972;28;20389;-74
2023/04/01 11:24:31;;;;;;;1.70;1.05;;;11.60;99.90;;;;;;5123441;27;20086;-74
2023/04/01 11:27:09;;;;;;;1.27;1.13;;;11.60;99.90;;;;;;5133383;27;20034;-74
2023/04/01 11:30:14;;;;;;;1.73;0.90;;;11.70;99.90;;;;;;5131974;27;20033;-76
2023/04/01 11:32:53;;;;;;;2.58;1.33;;;11.80;99.90;;;;;;5131906;27;20054;-74
2023/04/01 11:35:54;;;;;;;2.90;1.10;;;11.80;99.90;;;;;;5114895;27;20034;-74
2023/04/01 11:38:57;;;;;;;2.33;1.42;;;11.90;99.90;;;;;;5128171;27;20042;-74
2023/04/01 11:41:32;;;;;;;2.30;1.42;;;12.00;99.90;;;;;;5133445;27;20372;-74
2023/04/01 11:44:27;;;;;;;4.18;1.50;;;12.20;99.90;;;;;;5132907;27;20080;-74
2023/04/01 11:47:04;;;;;;;2.08;1.27;;;12.20;99.90;;;;;;5132438;27;20502;-75
2023/04/01 11:50:08;;;;;;;3.42;1.60;;;12.30;99.90;;;;;;5114460;27;20022;-81
2023/04/01 11:52:37;;;;;;;2.58;1.25;;;12.30;99.90;;;;;;5127733;27;20043;-75
2023/04/01 11:55:08;;;;;;;3.70;1.50;;;12.30;99.90;;;;;;5133007;27;20023;-74
2023/04/01 11:57:50;;;;;;;4.45;1.40;;;12.30;99.90;;;;;;5113892;27;20332;-75
2023/04/01 12:00:35;;;;;;;2.38;1.30;;;12.40;99.90;;;;;;5133545;27;20114;-74
2023/04/01 12:03:20;;;;;;;2.85;1.42;;;12.50;99.90;;;;;;5133421;27;20030;-74
2023/04/01 12:06:21;;;;;;;3.35;1.40;;;12.50;99.90;;;;;;5132434;27;20053;-75
2023/04/01 12:09:15;;;;;;;2.38;1.55;;;12.70;99.90;;;;;;5045322;27;20064;-75
2023/04/01 12:12:31;;;;;;;3.50;1.50;;;12.80;99.90;;;;;;5084444;27;20084;-75
2023/04/01 12:15:28;;;;;;;2.60;1.17;;;13.00;99.90;;;;;;5029398;28;20129;-75
2023/04/01 12:18:19;;;;;;;3.92;1.38;;;12.90;99.90;;;;;;5007440;28;20053;-74
2023/04/01 12:20:54;;;;;;;2.22;1.15;;;12.80;99.90;;;;;;5125620;27;20035;-74
2023/04/01 12:23:49;;;;;;;3.35;1.27;;;12.80;99.90;;;;;;5131595;27;20112;-75
2023/04/01 12:26:43;;;;;;;2.80;1.38;;;12.70;99.90;;;;;;5096418;27;20053;-74
2023/04/01 12:29:24;;;;;;;5.20;1.50;;;12.80;99.90;;;;;;5132152;27;20041;-74
2023/04/01 12:32:00;;;;;;;3.10;1.40;;;12.80;99.90;;;;;;5131718;27;20073;-75
2023/04/01 12:35:04;;;;;;;3.50;2.05;;;12.80;99.90;;;;;;5132261;27;20034;-75
2023/04/01 12:37:51;;;;;;;2.60;1.95;;;13.00;99.90;;;;;;5113774;27;20027;-74
2023/04/01 12:40:40;;;;;;;3.58;2.45;;;13.00;99.90;;;;;;5113585;27;20179;-74
2023/04/01 12:43:30;;;;;;;4.50;1.55;;;13.10;99.90;;;;;;5132219;27;20527;-74
2023/04/01 12:46:32;;;;;;;3.85;1.45;;;13.00;99.90;;;;;;5131583;27;20523;-74
2023/04/01 12:49:09;;;;;;;4.40;1.52;;;12.90;99.90;;;;;;5028545;28;20075;-74
2023/04/01 12:52:14;;;;;;;5.20;1.40;;;12.80;99.90;;;;;;5131397;27;20471;-75
2023/04/01 12:54:46;;;;;;;4.85;1.92;;;12.60;99.90;;;;;;5094669;27;20126;-74
2023/04/01 12:57:18;;;;;;;2.53;1.60;;;12.60;99.90;;;;;;5132225;28;20023;-74
2023/04/01 12:59:46;;;;;;;2.80;1.80;;;12.70;99.90;;;;;;5131796;28;20411;-75
2023/04/01 13:02:50;;;;;;;3.03;1.80;;;12.70;99.90;;;;;;5131965;28;20031;-74
2023/04/01 13:05:19;;;;;;;3.42;1.60;;;12.70;99.90;;;;;;5132014;28;20063;-73
2023/04/01 13:07:48;;;;;;;2.97;1.48;;;12.60;99.90;;;;;;5131459;28;20033;-74
2023/04/01 13:10:39;;;;;;;6.00;1.58;;;12.60;99.90;;;;;;5132033;28;20031;-73
2023/04/01 13:13:17;;;;;;;5.15;2.10;;;12.70;99.90;;;;;;5131774;28;20027;-74
2023/04/01 13:15:52;;;;;;;3.50;1.90;;;12.90;99.90;;;;;;5113037;28;20045;-74
2023/04/01 13:18:31;;;;;;;3.42;1.60;;;13.00;99.90;;;;;;5131824;28;20114;-74
2023/04/01 13:21:30;;;;;;;1.83;1.58;;;13.00;99.90;;;;;;5131000;28;20088;-75
2023/04/01 13:24:22;;;;;;;4.00;1.70;;;13.10;99.90;;;;;;5091388;28;20103;-75
2023/04/01 13:27:06;;;;;;;2.72;1.50;;;13.10;99.90;;;;;;5131057;28;20601;-75
2023/04/01 13:29:34;;;;;;;3.30;1.58;;;13.10;99.90;;;;;;5131916;28;20110;-75
2023/04/01 13:32:05;;;;;;;5.10;1.75;;;13.00;99.90;;;;;;5131466;28;20034;-74
2023/04/01 13:34:53;;;;;;;3.60;1.90;;;13.00;99.90;;;;;;5131585;28;20058;-74
2023/04/01 13:37:56;;;;;;;2.40;1.75;;;12.90;99.90;;;;;;5131788;28;20358;-74
2023/04/01 13:41:05;;;;;;;3.28;1.73;;;12.80;99.90;;;;;;5131737;28;20080;-74
2023/04/01 13:43:36;;;;;;;7.80;4.90;;;12.80;99.90;;;;;;5135689;27;20031;-74
2023/04/01 13:46:02;;;;;;;3.95;2.38;;;12.80;99.90;;;;;;5135101;27;20034;-73